Time;durP1;ratioP1;P1;durP2;ratioP2;P2;SDS_P1;SDS_P2;PMS_P1;PMS_P2;Temp;Humidity;BMP_temperature;BMP_pressure;BME280_temperature;BME280_humidity;BME280_pressure;Samples;Min_cycle;Max_cycle;Signal;HPM_P1;HPM_P2
2023/04/21 00:01:38;;;;;;;42.90;29.50;;;9.50;99.90;;;;;;4310938;28;10000129;-75
2023/04/21 00:04:04;;;;;;;40.65;28.23;;;9.50;99.90;;;;;;5016161;28;20037;-75
2023/04/21 00:06:30;;;;;;;43.10;29.73;;;9.50;99.90;;;;;;5007154;28;20034;-75
2023/04/21 00:08:55;;;;;;;42.45;29.50;;;9.50;99.90;;;;;;4997704;28;20026;-75
2023/04/21 00:11:21;;;;;;;44.92;29.23;;;9.50;99.90;;;;;;5009169;28;20022;-75
2023/04/21 00:13:47;;;;;;;41.03;28.27;;;9.40;99.90;;;;;;5010445;28;20558;-75
2023/04/21 00:16:12;;;;;;;44.90;30.30;;;9.40;99.90;;;;;;5010358;28;20135;-74
2023/04/21 00:18:38;;;;;;;43.22;29.95;;;9.50;99.90;;;;;;5001620;28;20028;-75
2023/04/21 00:21:04;;;;;;;50.17;30.20;;;9.40;99.90;;;;;;4994892;28;20110;-75
2023/04/21 00:23:29;;;;;;;44.08;30.30;;;9.50;99.90;;;;;;5005356;28;20108;-75
2023/04/21 00:25:55;;;;;;;43.40;30.08;;;9.40;99.90;;;;;;4997992;28;20102;-75
2023/04/21 00:28:21;;;;;;;45.38;29.70;;;9.40;99.90;;;;;;5007849;28;20041;-74
2023/04/21 00:30:46;;;;;;;42.13;29.40;;;9.50;99.90;;;;;;5009239;28;20033;-74
2023/04/21 00:33:12;;;;;;;40.92;29.27;;;9.40;99.90;;;;;;5008905;28;20695;-74
2023/04/21 00:35:37;;;;;;;43.05;29.98;;;9.40;99.90;;;;;;5005631;28;20114;-74
2023/04/21 00:38:03;;;;;;;42.75;29.45;;;9.40;99.90;;;;;;5007507;28;20056;-74
2023/04/21 00:40:28;;;;;;;42.30;29.02;;;9.30;99.90;;;;;;4996290;28;20102;-74
2023/04/21 00:42:54;;;;;;;47.72;30.70;;;9.30;99.90;;;;;;4996457;28;20026;-74
2023/04/21 00:45:19;;;;;;;42.30;27.85;;;9.30;99.90;;;;;;5005195;28;20096;-75
2023/04/21 00:47:45;;;;;;;49.15;29.83;;;9.30;99.90;;;;;;5007047;28;20077;-74
2023/04/21 00:50:11;;;;;;;42.92;28.45;;;9.30;99.90;;;;;;5006000;28;20502;-74
2023/04/21 00:52:43;;;;;;;46.30;30.80;;;9.20;99.90;;;;;;5004915;28;20122;-74
2023/04/21 00:55:09;;;;;;;42.63;29.70;;;9.20;99.90;;;;;;5000529;28;20034;-74
2023/04/21 00:57:36;;;;;;;40.58;28.23;;;9.20;99.90;;;;;;5004834;28;20080;-74
2023/04/21 01:00:04;;;;;;;41.75;29.08;;;9.20;99.90;;;;;;4999981;28;20050;-74
2023/04/21 01:02:30;;;;;;;42.60;28.98;;;9.20;99.90;;;;;;5008034;28;20044;-75
2023/04/21 01:04:56;;;;;;;42.50;29.30;;;9.20;99.90;;;;;;5007361;28;20109;-75
2023/04/21 01:07:24;;;;;;;43.60;29.85;;;9.20;99.90;;;;;;4998896;28;20494;-74
2023/04/21 01:09:50;;;;;;;44.10;29.58;;;9.20;99.90;;;;;;5008210;28;20383;-74
2023/04/21 01:12:15;;;;;;;41.53;29.05;;;9.20;99.90;;;;;;4996274;28;20127;-74
2023/04/21 01:14:41;;;;;;;42.85;29.02;;;9.20;99.90;;;;;;5006200;28;20037;-73
2023/04/21 01:17:07;;;;;;;38.63;27.33;;;9.20;99.90;;;;;;5007133;28;20104;-74
2023/04/21 01:19:38;;;;;;;40.30;28.60;;;9.20;99.90;;;;;;5006226;28;20033;-75
2023/04/21 01:22:05;;;;;;;41.75;29.55;;;9.20;99.90;;;;;;5006280;28;20080;-74
2023/04/21 01:24:42;;;;;;;45.40;30.95;;;9.20;99.90;;;;;;5001497;28;20037;-74
2023/04/21 01:27:10;;;;;;;43.15;29.90;;;9.20;99.90;;;;;;5009284;28;20485;-74
2023/04/21 01:29:36;;;;;;;42.60;30.17;;;9.20;99.90;;;;;;5000844;28;20040;-74
2023/04/21 01:32:10;;;;;;;41.35;28.42;;;9.20;99.90;;;;;;5001290;28;20026;-75
2023/04/21 01:34:36;;;;;;;43.38;30.80;;;9.20;99.90;;;;;;5009221;28;20061;-75
2023/04/21 01:37:02;;;;;;;40.13;28.33;;;9.20;99.90;;;;;;5000443;28;20033;-74
2023/04/21 01:39:28;;;;;;;40.03;28.58;;;9.20;99.90;;;;;;5004382;28;20026;-74
2023/04/21 01:41:56;;;;;;;43.88;30.23;;;9.10;99.90;;;;;;5007924;28;20038;-75
2023/04/21 01:44:24;;;;;;;39.53;29.13;;;9.20;99.90;;;;;;4997739;28;20026;-74
2023/04/21 01:46:50;;;;;;;43.08;30.35;;;9.10;99.90;;;;;;5009096;28;20060;-75
2023/04/21 01:49:16;;;;;;;45.88;28.83;;;9.10;99.90;;;;;;5005313;28;20038;-74
2023/04/21 01:51:41;;;;;;;43.83;29.88;;;9.10;99.90;;;;;;5003865;28;20038;-75
2023/04/21 01:54:07;;;;;;;46.53;30.00;;;9.10;99.90;;;;;;5006719;28;20030;-75
2023/04/21 01:56:33;;;;;;;42.22;29.88;;;9.00;99.90;;;;;;5011952;28;20544;-74
2023/04/21 01:58:58;;;;;;;44.60;31.13;;;9.00;99.90;;;;;;5004495;28;20030;-74
2023/04/21 02:01:24;;;;;;;43.33;29.50;;;9.00;99.90;;;;;;5006400;28;20113;-74
2023/04/21 02:03:49;;;;;;;46.78;30.90;;;9.00;99.90;;;;;;5000981;28;20037;-74
2023/04/21 02:06:16;;;;;;;43.78;31.15;;;9.00;99.90;;;;;;5009775;28;20038;-75
2023/04/21 02:08:42;;;;;;;44.90;31.13;;;9.00;99.90;;;;;;5006841;28;20052;-74
2023/04/21 02:11:07;;;;;;;46.60;29.83;;;9.00;99.90;;;;;;5006897;28;20030;-74
2023/04/21 02:13:33;;;;;;;42.58;30.08;;;9.00;99.90;;;;;;5007726;28;20071;-74
2023/04/21 02:15:58;;;;;;;45.40;31.13;;;9.00;99.90;;;;;;4997804;28;20023;-74
2023/04/21 02:18:24;;;;;;;43.42;30.35;;;9.00;99.90;;;;;;5009376;28;20034;-74
2023/04/21 02:20:50;;;;;;;44.42;30.15;;;9.00;99.90;;;;;;5011039;28;20057;-74
2023/04/21 02:23:16;;;;;;;46.10;30.80;;;9.00;99.90;;;;;;5006084;28;20085;-74
2023/04/21 02:25:41;;;;;;;48.00;31.02;;;9.00;99.90;;;;;;5010919;28;20445;-74
2023/04/21 02:28:07;;;;;;;45.05;29.88;;;9.00;99.90;;;;;;5010237;28;20030;-74
2023/04/21 02:30:34;;;;;;;43.30;29.60;;;9.00;99.90;;;;;;5008713;28;20442;-74
2023/04/21 02:32:59;;;;;;;45.25;30.95;;;9.00;99.90;;;;;;5008173;28;20093;-74
2023/04/21 02:35:26;;;;;;;45.78;29.90;;;9.00;99.90;;;;;;5007071;28;20050;-74
2023/04/21 02:37:51;;;;;;;43.78;30.20;;;9.00;99.90;;;;;;5007796;28;20018;-75
2023/04/21 02:40:17;;;;;;;42.25;29.30;;;9.00;99.90;;;;;;5003108;28;20033;-74
2023/04/21 02:42:42;;;;;;;42.67;29.90;;;9.00;99.90;;;;;;5007055;28;20026;-74
2023/04/21 02:45:09;;;;;;;45.00;30.27;;;9.00;99.90;;;;;;5011184;28;20045;-74
2023/04/21 02:47:35;;;;;;;40.92;28.30;;;9.00;99.90;;;;;;5004383;28;20113;-75
2023/04/21 02:50:00;;;;;;;43.33;28.98;;;9.00;99.90;;;;;;5009273;28;20112;-75
2023/04/21 02:52:26;;;;;;;42.50;28.55;;;9.00;99.90;;;;;;5008912;28;20626;-74
2023/04/21 02:54:52;;;;;;;41.22;28.38;;;9.00;99.90;;;;;;4998684;28;20117;-75
2023/04/21 02:57:17;;;;;;;43.90;29.58;;;9.00;99.90;;;;;;5001875;28;20454;-75
2023/04/21 02:59:43;;;;;;;45.10;28.90;;;9.10;99.90;;;;;;5008134;28;20041;-74
2023/04/21 03:02:09;;;;;;;41.92;29.42;;;9.10;99.90;;;;;;5008244;28;20042;-75
2023/04/21 03:04:35;;;;;;;43.63;28.55;;;9.10;99.90;;;;;;5007729;28;20032;-74
2023/04/21 03:07:00;;;;;;;43.58;28.75;;;9.10;99.90;;;;;;5007345;28;20037;-75
2023/04/21 03:09:26;;;;;;;44.42;28.38;;;9.10;99.90;;;;;;5007961;28;20084;-74
2023/04/21 03:11:51;;;;;;;40.58;28.10;;;9.10;99.90;;;;;;5000181;28;20030;-75
2023/04/21 03:14:17;;;;;;;39.13;26.95;;;9.10;99.90;;;;;;5005733;28;20947;-74
2023/04/21 03:16:43;;;;;;;43.13;28.73;;;9.10;99.90;;;;;;5009842;28;20025;-74
2023/04/21 03:19:08;;;;;;;40.72;28.58;;;9.10;99.90;;;;;;5011635;28;20050;-74
2023/04/21 03:21:36;;;;;;;40.13;27.65;;;9.10;99.90;;;;;;5008580;28;20433;-74
2023/04/21 03:24:02;;;;;;;40.63;28.05;;;9.10;99.90;;;;;;5006843;28;20034;-74
2023/04/21 03:26:28;;;;;;;38.72;27.23;;;9.20;99.90;;;;;;5001801;28;20030;-73
2023/04/21 03:28:53;;;;;;;42.03;27.77;;;9.20;99.90;;;;;;4999210;28;20027;-75
2023/04/21 03:31:19;;;;;;;40.20;27.98;;;9.20;99.90;;;;;;4994619;28;20100;-74
2023/04/21 03:33:45;;;;;;;42.00;27.45;;;9.20;99.90;;;;;;4997858;28;20481;-74
2023/04/21 03:36:10;;;;;;;40.33;28.33;;;9.20;99.90;;;;;;5002173;28;20030;-74
2023/04/21 03:38:36;;;;;;;43.25;29.02;;;9.20;99.90;;;;;;4996813;28;20018;-75
2023/04/21 03:41:03;;;;;;;39.88;26.92;;;9.20;99.90;;;;;;5004613;28;20026;-73
2023/04/21 03:43:29;;;;;;;40.35;27.73;;;9.20;99.90;;;;;;5004654;28;20068;-74
2023/04/21 03:45:55;;;;;;;45.22;28.38;;;9.20;99.90;;;;;;5008740;28;20073;-73
2023/04/21 03:48:20;;;;;;;42.30;27.13;;;9.20;99.90;;;;;;5005180;28;20093;-75
2023/04/21 03:50:46;;;;;;;41.53;27.42;;;9.20;99.90;;;;;;5002618;28;20030;-73
2023/04/21 03:53:11;;;;;;;38.25;25.85;;;9.30;99.90;;;;;;4997600;28;20117;-75
2023/04/21 03:55:37;;;;;;;41.47;27.50;;;9.20;99.90;;;;;;5009218;28;20033;-75
2023/04/21 03:58:02;;;;;;;38.88;27.30;;;9.20;99.90;;;;;;5010375;28;20038;-75
2023/04/21 04:00:28;;;;;;;39.25;27.40;;;9.30;99.90;;;;;;5006708;28;20148;-75
2023/04/21 04:02:53;;;;;;;41.72;27.92;;;9.20;99.90;;;;;;4999327;28;20026;-75
2023/04/21 04:05:19;;;;;;;40.20;27.35;;;9.20;99.90;;;;;;5007413;28;20029;-75
2023/04/21 04:07:45;;;;;;;40.47;27.58;;;9.30;99.90;;;;;;5003648;28;20517;-75
2023/04/21 04:10:10;;;;;;;43.85;27.67;;;9.20;99.90;;;;;;5009790;28;20052;-75
2023/04/21 04:12:36;;;;;;;40.40;26.98;;;9.20;99.90;;;;;;4999336;28;20075;-75
2023/04/21 04:15:02;;;;;;;40.70;27.60;;;9.20;99.90;;;;;;5005389;28;20389;-75
2023/04/21 04:17:27;;;;;;;43.28;28.95;;;9.20;99.90;;;;;;5005235;28;20068;-75
2023/04/21 04:19:53;;;;;;;42.92;28.05;;;9.20;99.90;;;;;;5002187;28;20029;-75
2023/04/21 04:22:19;;;;;;;46.50;28.75;;;9.20;99.90;;;;;;4999984;28;20054;-75
2023/04/21 04:24:44;;;;;;;41.25;27.90;;;9.30;99.90;;;;;;4999488;28;20030;-75
2023/04/21 04:27:12;;;;;;;39.42;27.02;;;9.30;99.90;;;;;;5006198;28;20037;-75
2023/04/21 04:29:38;;;;;;;41.38;27.02;;;9.30;99.90;;;;;;5001806;28;20038;-74
2023/04/21 04:32:05;;;;;;;40.72;27.33;;;9.30;99.90;;;;;;5004322;28;20041;-75
2023/04/21 04:34:31;;;;;;;41.42;27.33;;;9.30;99.90;;;;;;5001126;28;20108;-75
2023/04/21 04:36:57;;;;;;;39.85;27.48;;;9.30;99.90;;;;;;5001245;28;20294;-75
2023/04/21 04:39:24;;;;;;;38.17;26.73;;;9.40;99.90;;;;;;5000893;28;20478;-75
2023/04/21 04:41:51;;;;;;;39.75;27.50;;;9.40;99.90;;;;;;4998293;28;20118;-75
2023/04/21 04:44:17;;;;;;;41.78;27.00;;;9.50;99.90;;;;;;5004119;28;20057;-75
2023/04/21 04:46:44;;;;;;;44.35;28.45;;;9.40;99.90;;;;;;4999983;28;20573;-75
2023/04/21 04:49:09;;;;;;;38.33;26.90;;;9.50;99.90;;;;;;4999244;28;20034;-75
2023/04/21 04:51:35;;;;;;;40.28;26.85;;;9.50;99.90;;;;;;4993799;28;20084;-75
2023/04/21 04:54:01;;;;;;;37.63;25.30;;;9.50;99.90;;;;;;4998224;28;20490;-75
2023/04/21 04:56:29;;;;;;;39.72;26.52;;;9.50;99.90;;;;;;5000238;28;20030;-75
2023/04/21 04:58:54;;;;;;;36.25;24.95;;;9.60;99.90;;;;;;5002578;28;20026;-75
2023/04/21 05:01:20;;;;;;;38.80;26.27;;;9.60;99.90;;;;;;5001239;28;20547;-75
2023/04/21 05:03:46;;;;;;;39.17;26.92;;;9.70;99.90;;;;;;4998126;28;20036;-75
2023/04/21 05:06:12;;;;;;;43.42;26.40;;;9.70;99.90;;;;;;5003909;28;20030;-75
2023/04/21 05:08:40;;;;;;;41.47;26.65;;;9.70;99.90;;;;;;5005199;28;20030;-75
2023/04/21 05:11:06;;;;;;;39.95;26.10;;;9.80;99.90;;;;;;4999834;28;20038;-75
2023/04/21 05:13:32;;;;;;;37.72;25.77;;;9.80;99.90;;;;;;5003376;28;20029;-75
2023/04/21 05:16:00;;;;;;;40.05;25.75;;;9.80;99.90;;;;;;5004385;28;20441;-75
2023/04/21 05:18:26;;;;;;;39.45;26.20;;;9.90;99.90;;;;;;4989202;28;20160;-75
2023/04/21 05:20:52;;;;;;;39.50;26.05;;;9.90;99.90;;;;;;4986920;28;20494;-75
2023/04/21 05:23:18;;;;;;;35.33;25.58;;;10.00;99.90;;;;;;4995279;28;20022;-75
2023/04/21 05:25:43;;;;;;;37.53;25.63;;;10.00;99.90;;;;;;4997086;28;20331;-74
2023/04/21 05:28:09;;;;;;;38.55;24.42;;;10.00;99.90;;;;;;4998179;28;20042;-75
2023/04/21 05:30:35;;;;;;;36.25;24.35;;;10.10;99.90;;;;;;5007006;28;20030;-74
2023/04/21 05:33:01;;;;;;;35.67;25.27;;;10.10;99.90;;;;;;4997493;28;20038;-75
2023/04/21 05:35:29;;;;;;;34.67;24.90;;;10.10;99.90;;;;;;4997429;28;20037;-75
2023/04/21 05:37:55;;;;;;;35.28;24.52;;;10.20;99.90;;;;;;4999765;28;20516;-75
2023/04/21 05:40:21;;;;;;;39.22;24.90;;;10.20;99.90;;;;;;4996000;28;20034;-75
2023/04/21 05:42:46;;;;;;;37.03;24.70;;;10.20;99.90;;;;;;4988075;28;20185;-76
2023/04/21 05:45:12;;;;;;;37.25;23.88;;;10.30;99.90;;;;;;5000392;28;20034;-75
2023/04/21 05:47:38;;;;;;;37.22;25.40;;;10.30;99.90;;;;;;4995371;28;20045;-76
2023/04/21 05:50:05;;;;;;;36.97;25.33;;;10.30;99.90;;;;;;4994398;28;20148;-75
2023/04/21 05:52:31;;;;;;;39.50;25.25;;;10.30;99.90;;;;;;4999911;28;20494;-76
2023/04/21 05:54:58;;;;;;;35.58;24.73;;;10.30;99.90;;;;;;4999921;28;20049;-75
2023/04/21 05:58:07;;;;;;;35.55;24.75;;;10.30;99.90;;;;;;4999530;28;20026;-75
2023/04/21 06:00:33;;;;;;;35.97;24.20;;;10.40;99.90;;;;;;4995671;28;20023;-74
2023/04/21 06:02:59;;;;;;;36.92;25.20;;;10.30;99.90;;;;;;4994459;28;20540;-74
2023/04/21 06:05:24;;;;;;;35.50;23.85;;;10.40;99.90;;;;;;5001799;28;20040;-75
2023/04/21 06:07:50;;;;;;;35.30;23.55;;;10.50;99.90;;;;;;5005827;28;20490;-74
2023/04/21 06:10:17;;;;;;;36.28;24.20;;;10.50;99.90;;;;;;4992459;28;20054;-74
2023/04/21 06:12:42;;;;;;;36.55;23.83;;;10.60;99.90;;;;;;4991603;28;20495;-74
2023/04/21 06:15:08;;;;;;;36.47;22.95;;;10.70;99.90;;;;;;4993174;28;20068;-74
2023/04/21 06:17:34;;;;;;;35.03;23.88;;;10.70;99.90;;;;;;4993946;28;20026;-74
2023/04/21 06:19:59;;;;;;;33.97;23.35;;;10.80;99.90;;;;;;4991875;28;20029;-75
2023/04/21 06:22:26;;;;;;;35.08;24.33;;;10.80;99.90;;;;;;4996391;28;20494;-74
2023/04/21 06:24:52;;;;;;;36.42;24.58;;;10.70;99.90;;;;;;4992676;28;20083;-75
2023/04/21 06:27:18;;;;;;;36.00;23.63;;;10.70;99.90;;;;;;4993723;28;20030;-75
2023/04/21 06:29:43;;;;;;;34.22;23.42;;;10.70;99.90;;;;;;4995793;28;20068;-75
2023/04/21 06:32:10;;;;;;;30.50;22.02;;;10.70;99.90;;;;;;4992947;28;20026;-74
2023/04/21 06:34:36;;;;;;;33.17;22.85;;;10.80;99.90;;;;;;5003712;28;20030;-74
2023/04/21 06:37:01;;;;;;;34.10;22.73;;;10.80;99.90;;;;;;5000524;28;20021;-75
2023/04/21 06:39:27;;;;;;;33.25;22.55;;;10.80;99.90;;;;;;4999542;28;20026;-75
2023/04/21 06:41:53;;;;;;;37.75;22.85;;;10.80;99.90;;;;;;4997291;28;20029;-74
2023/04/21 06:44:19;;;;;;;33.55;22.65;;;10.80;99.90;;;;;;4998598;28;20033;-75
2023/04/21 06:46:46;;;;;;;33.45;22.98;;;10.80;99.90;;;;;;4990980;28;20046;-74
2023/04/21 06:49:12;;;;;;;35.08;23.10;;;10.80;99.90;;;;;;4998137;28;20156;-74
2023/04/21 06:51:37;;;;;;;36.60;23.02;;;10.80;99.90;;;;;;5001196;28;20064;-75
2023/04/21 06:54:03;;;;;;;31.80;22.08;;;10.80;99.90;;;;;;5007154;28;20057;-75
2023/04/21 06:56:29;;;;;;;35.42;22.33;;;10.80;99.90;;;;;;5000866;28;20029;-75
2023/04/21 06:58:55;;;;;;;35.63;22.05;;;10.80;99.90;;;;;;5002312;28;20026;-75
2023/04/21 07:01:23;;;;;;;33.65;22.20;;;10.80;99.90;;;;;;4999620;28;20044;-75
2023/04/21 07:03:51;;;;;;;37.05;21.95;;;10.80;99.90;;;;;;4992829;28;20069;-75
2023/04/21 07:06:17;;;;;;;33.67;22.00;;;10.80;99.90;;;;;;4996694;28;20042;-75
2023/04/21 07:08:43;;;;;;;34.13;22.17;;;10.90;99.90;;;;;;4997186;28;20050;-75
2023/04/21 07:11:08;;;;;;;33.50;22.20;;;10.90;99.90;;;;;;5003177;28;20034;-74
2023/04/21 07:13:34;;;;;;;34.10;22.58;;;11.00;99.90;;;;;;5002285;28;20437;-75
2023/04/21 07:15:59;;;;;;;32.03;21.90;;;11.10;99.90;;;;;;5000155;28;20034;-74
2023/04/21 07:18:25;;;;;;;33.10;21.55;;;11.20;99.90;;;;;;4993853;28;20671;-75
2023/04/21 07:20:51;;;;;;;30.88;21.40;;;11.20;99.90;;;;;;5001735;28;20044;-75
2023/04/21 07:23:17;;;;;;;31.00;22.23;;;11.30;99.90;;;;;;4998039;28;20033;-74
2023/04/21 07:25:42;;;;;;;33.72;22.15;;;11.40;99.90;;;;;;5000303;28;20025;-75
2023/04/21 07:28:09;;;;;;;31.38;21.92;;;11.50;99.90;;;;;;5008975;28;20025;-75
2023/04/21 07:30:35;;;;;;;33.33;22.08;;;11.60;99.90;;;;;;5004529;28;20030;-75
2023/04/21 07:33:01;;;;;;;31.83;20.52;;;11.70;99.90;;;;;;4992423;28;20060;-75
2023/04/21 07:35:26;;;;;;;33.97;21.05;;;11.70;99.90;;;;;;5002723;28;20050;-74
2023/04/21 07:37:52;;;;;;;30.92;20.90;;;11.80;99.90;;;;;;4989545;28;20066;-74
2023/04/21 07:40:18;;;;;;;30.00;20.42;;;11.90;99.90;;;;;;4999602;28;20031;-74
2023/04/21 07:42:44;;;;;;;30.70;19.88;;;12.10;99.90;;;;;;4990204;28;20121;-74
2023/04/21 07:45:10;;;;;;;30.27;20.80;;;12.20;99.90;;;;;;4990314;28;20481;-74
2023/04/21 07:47:36;;;;;;;30.13;20.80;;;12.40;99.90;;;;;;5000626;28;20034;-74
2023/04/21 07:50:01;;;;;;;29.58;20.63;;;12.70;99.90;;;;;;4996759;28;20394;-74
2023/04/21 07:52:27;;;;;;;29.00;19.63;;;13.10;99.90;;;;;;4998801;28;20520;-74
2023/04/21 07:54:53;;;;;;;27.48;18.63;;;13.40;99.90;;;;;;4994338;28;20026;-74
2023/04/21 07:57:19;;;;;;;26.45;18.48;;;13.60;99.90;;;;;;5000878;28;20026;-74
2023/04/21 08:00:00;;;;;;;29.10;18.22;;;13.80;99.90;;;;;;4838498;28;10001184;-74
2023/04/21 08:02:25;;;;;;;26.08;18.60;;;13.90;99.90;;;;;;4996591;28;20242;-74
2023/04/21 08:04:51;;;;;;;28.40;19.55;;;13.90;99.90;;;;;;5002178;28;20029;-75
2023/04/21 08:07:17;;;;;;;28.13;20.08;;;13.70;99.90;;;;;;5003321;28;20060;-74
2023/04/21 08:09:42;;;;;;;29.58;20.73;;;13.70;99.90;;;;;;5005117;28;20433;-75
2023/04/21 08:12:08;;;;;;;29.85;19.42;;;13.50;99.90;;;;;;5007278;28;20114;-75
2023/04/21 08:14:33;;;;;;;32.33;21.02;;;13.50;99.90;;;;;;5005463;28;20065;-75
2023/04/21 08:16:59;;;;;;;26.15;19.38;;;13.60;99.90;;;;;;4998617;28;20394;-74
2023/04/21 08:19:25;;;;;;;27.65;18.77;;;13.70;99.90;;;;;;5005011;28;20026;-74
2023/04/21 08:21:50;;;;;;;24.67;17.75;;;14.00;99.90;;;;;;5002205;28;20025;-74
2023/04/21 08:24:16;;;;;;;24.45;16.58;;;14.20;99.90;;;;;;4999350;28;20045;-75
2023/04/21 08:26:41;;;;;;;21.63;16.00;;;14.20;99.90;;;;;;4992658;28;20068;-75
2023/04/21 08:29:09;;;;;;;22.80;15.82;;;14.30;99.90;;;;;;4998921;28;20555;-74
2023/04/21 08:31:35;;;;;;;20.40;15.07;;;14.20;99.90;;;;;;5007204;28;20084;-74
2023/04/21 08:34:00;;;;;;;24.50;14.50;;;14.20;99.90;;;;;;4996243;28;20034;-74
2023/04/21 08:36:27;;;;;;;21.90;14.43;;;14.30;99.90;;;;;;5005853;28;20024;-74
2023/04/21 08:38:52;;;;;;;20.42;13.88;;;14.60;99.90;;;;;;4996207;28;20126;-74
2023/04/21 08:41:19;;;;;;;23.63;13.93;;;14.80;99.90;;;;;;4998972;28;20076;-74
2023/04/21 08:43:44;;;;;;;20.42;13.55;;;15.00;99.90;;;;;;5000752;28;20030;-74
2023/04/21 08:46:11;;;;;;;21.10;14.40;;;15.00;99.90;;;;;;4999622;28;20129;-74
2023/04/21 08:48:37;;;;;;;21.42;13.30;;;15.10;99.90;;;;;;5004666;28;20116;-74
2023/04/21 08:51:06;;;;;;;20.98;13.93;;;15.00;99.90;;;;;;5001968;28;20038;-74
2023/04/21 08:53:31;;;;;;;18.25;12.98;;;14.80;99.90;;;;;;4998672;28;20050;-74
2023/04/21 08:55:57;;;;;;;20.63;14.32;;;14.60;99.90;;;;;;5002167;28;20468;-74
2023/04/21 08:58:22;;;;;;;18.02;12.90;;;14.40;99.90;;;;;;5011821;28;20084;-74
2023/04/21 09:00:49;;;;;;;22.13;14.57;;;14.30;99.90;;;;;;4999912;28;20037;-74
2023/04/21 09:03:22;;;;;;;19.42;13.63;;;14.20;99.90;;;;;;4991096;28;20078;-74
2023/04/21 09:05:57;;;;;;;20.42;15.10;;;14.10;99.90;;;;;;5002628;28;20026;-74
2023/04/21 09:08:24;;;;;;;22.83;14.90;;;14.00;99.90;;;;;;4997828;28;20080;-74
2023/04/21 09:10:51;;;;;;;20.80;14.25;;;14.00;99.90;;;;;;4992657;28;20072;-74
2023/04/21 09:13:17;;;;;;;22.23;14.32;;;13.90;99.90;;;;;;4997076;28;20044;-74
2023/04/21 09:15:52;;;;;;;21.13;14.57;;;13.90;99.90;;;;;;5000479;28;20022;-74
2023/04/21 09:18:20;;;;;;;24.30;15.30;;;13.90;99.90;;;;;;4991705;28;20033;-74
2023/04/21 09:20:47;;;;;;;22.65;15.20;;;13.90;99.90;;;;;;4998454;28;20026;-75
2023/04/21 09:23:13;;;;;;;22.17;14.65;;;13.90;99.90;;;;;;4996482;28;20038;-74
2023/04/21 09:25:41;;;;;;;24.35;14.30;;;13.90;99.90;;;;;;5006344;28;20040;-75
2023/04/21 09:28:16;;;;;;;24.63;16.08;;;13.90;99.90;;;;;;5004643;28;20038;-74
2023/04/21 09:30:42;;;;;;;21.75;15.90;;;13.80;99.90;;;;;;5000546;28;20243;-75
2023/04/21 09:33:15;;;;;;;24.83;16.30;;;13.80;99.90;;;;;;4993641;28;20088;-74
2023/04/21 09:35:41;;;;;;;25.05;15.13;;;13.80;99.90;;;;;;5003484;28;20398;-74
2023/04/21 09:38:12;;;;;;;24.42;15.07;;;13.80;99.90;;;;;;5003028;28;20021;-74
2023/04/21 09:40:39;;;;;;;19.83;14.02;;;13.80;99.90;;;;;;4991686;28;20116;-74
2023/04/21 09:43:05;;;;;;;21.60;14.88;;;13.90;99.90;;;;;;4997893;28;20048;-74
2023/04/21 09:45:32;;;;;;;20.90;14.70;;;14.00;99.90;;;;;;4995492;28;20042;-74
2023/04/21 09:48:00;;;;;;;19.38;13.85;;;14.30;99.90;;;;;;4992406;28;20052;-74
2023/04/21 09:50:26;;;;;;;22.45;14.18;;;14.60;99.90;;;;;;5001053;28;20454;-74
2023/04/21 09:52:55;;;;;;;21.15;13.77;;;14.90;99.90;;;;;;5005817;28;20092;-75
2023/04/21 09:55:26;;;;;;;18.75;13.75;;;15.20;99.90;;;;;;5001720;28;20030;-74
2023/04/21 09:57:57;;;;;;;18.67;13.50;;;15.50;99.90;;;;;;5007210;28;20026;-74
2023/04/21 10:00:27;;;;;;;27.02;14.07;;;15.60;99.90;;;;;;5002444;28;20021;-74
2023/04/21 10:02:53;;;;;;;22.42;13.77;;;15.60;99.90;;;;;;4988776;28;20053;-75
2023/04/21 10:05:19;;;;;;;19.88;13.35;;;15.70;99.90;;;;;;4995023;28;20061;-74
2023/04/21 10:07:46;;;;;;;17.15;12.20;;;15.80;99.90;;;;;;4995717;28;20040;-74
2023/04/21 10:10:20;;;;;;;23.17;12.43;;;15.90;99.90;;;;;;5004850;28;20200;-74
2023/04/21 10:12:46;;;;;;;21.00;13.05;;;16.00;99.90;;;;;;4998171;28;20018;-75
2023/04/21 10:15:30;;;;;;;17.00;12.02;;;15.90;99.90;;;;;;4995121;28;20112;-76
2023/04/21 10:18:13;;;;;;;16.17;11.20;;;;;;;;;;5008475;28;20092;-74
2023/04/21 10:20:58;;;;;;;15.82;11.95;;;;;;;;;;5002410;28;20108;-74
2023/04/21 10:23:30;;;;;;;18.88;11.27;;;;;;;;;;5007582;28;20509;-74
2023/04/21 10:26:13;;;;;;;19.95;12.07;;;;;;;;;;5005458;28;20403;-74
2023/04/21 10:28:42;;;;;;;20.95;11.75;;;;;;;;;;5009211;28;20087;-75
2023/04/21 10:31:22;;;;;;;17.58;10.32;;;;;;;;;;5006216;28;20521;-75
2023/04/21 10:34:10;;;;;;;14.98;10.35;;;;;;;;;;4999376;28;20047;-74
2023/04/21 10:36:46;;;;;;;14.80;10.35;;;;;;;;;;5003019;28;20092;-76
2023/04/21 10:39:24;;;;;;;16.83;10.43;;;;;;;;;;5010721;28;20087;-76
2023/04/21 10:41:50;;;;;;;16.40;10.65;;;;;;;;;;5005163;28;20531;-75
2023/04/21 10:44:16;;;;;;;13.32;10.30;;;;;;;;;;5008484;28;20382;-75
2023/04/21 10:46:46;;;;;;;14.70;10.32;;;;;;;;;;5008785;28;20060;-76
2023/04/21 10:49:20;;;;;;;12.07;9.77;;;;;;;;;;5011262;28;20022;-75
2023/04/21 10:52:01;;;;;;;18.73;10.32;;;;;;;;;;5000476;28;20045;-75
2023/04/21 10:54:35;;;;;;;13.27;10.20;;;18.10;99.90;;;;;;4998285;28;20255;-73
2023/04/21 10:57:01;;;;;;;15.77;10.15;;;;;;;;;;4989072;28;20026;-74
2023/04/21 10:59:27;;;;;;;16.95;11.45;;;18.00;99.90;;;;;;5007098;28;20065;-73
2023/04/21 11:01:53;;;;;;;13.88;10.50;;;17.90;99.90;;;;;;5011503;28;20053;-73
2023/04/21 11:04:20;;;;;;;15.82;10.27;;;17.90;99.90;;;;;;5004918;28;20029;-73
2023/04/21 11:07:09;;;;;;;16.10;10.18;;;18.00;99.90;;;;;;4993740;28;20114;-73
2023/04/21 11:09:35;;;;;;;16.17;10.88;;;17.80;99.90;;;;;;4996404;28;20034;-73
2023/04/21 11:12:20;;;;;;;17.35;11.27;;;17.60;99.90;;;;;;5003920;28;20056;-73
2023/04/21 11:14:49;;;;;;;16.40;10.85;;;17.60;99.90;;;;;;4997574;28;20112;-73
2023/04/21 11:17:16;;;;;;;16.52;10.65;;;17.60;99.90;;;;;;5001839;28;20038;-73
2023/04/21 11:19:50;;;;;;;18.23;9.88;;;17.40;99.90;;;;;;5008286;28;20033;-73
2023/04/21 11:22:17;;;;;;;15.30;10.60;;;17.20;99.90;;;;;;4993803;28;20038;-73
2023/04/21 11:24:47;;;;;;;14.82;10.52;;;17.10;99.90;;;;;;4999475;28;20041;-73
2023/04/21 11:27:14;;;;;;;12.82;10.00;;;17.10;99.90;;;;;;4991485;28;20037;-73
2023/04/21 11:29:40;;;;;;;18.48;10.55;;;17.20;99.90;;;;;;5004692;28;20087;-73
2023/04/21 11:32:07;;;;;;;17.20;10.98;;;17.40;99.90;;;;;;5004752;28;20486;-73
2023/04/21 11:34:33;;;;;;;16.48;10.65;;;17.50;99.90;;;;;;5004988;28;20397;-73
2023/04/21 11:36:58;;;;;;;13.80;9.55;;;17.60;99.90;;;;;;4996023;28;20022;-73
2023/04/21 11:39:24;;;;;;;16.77;10.57;;;17.70;99.90;;;;;;5006307;28;20682;-73
2023/04/21 11:41:51;;;;;;;13.93;10.50;;;17.80;99.90;;;;;;4996618;28;20483;-74
2023/04/21 11:44:31;;;;;;;15.43;10.13;;;17.90;99.90;;;;;;4995149;28;20037;-73
2023/04/21 11:46:56;;;;;;;13.45;10.15;;;17.70;99.90;;;;;;5004741;28;20046;-74
2023/04/21 11:49:24;;;;;;;15.52;9.55;;;17.80;99.90;;;;;;4998790;28;20517;-73
2023/04/21 11:51:50;;;;;;;14.88;9.82;;;18.00;99.90;;;;;;4997505;28;20095;-74
2023/04/21 11:54:17;;;;;;;13.27;9.35;;;18.50;99.90;;;;;;4997289;28;20026;-73
2023/04/21 11:56:46;;;;;;;12.20;8.65;;;18.70;99.90;;;;;;4993473;28;20058;-72
2023/04/21 11:59:18;;;;;;;11.82;9.50;;;18.80;99.90;;;;;;4995591;28;20036;-72
2023/04/21 12:01:44;;;;;;;12.75;9.45;;;19.10;99.90;;;;;;4998178;28;20041;-72
2023/04/21 12:04:15;;;;;;;10.85;7.93;;;19.40;99.90;;;;;;4998210;28;20034;-74
2023/04/21 12:06:42;;;;;;;10.57;7.60;;;19.40;99.90;;;;;;5000166;28;20034;-73
2023/04/21 12:09:07;;;;;;;13.15;7.93;;;19.20;99.90;;;;;;4994321;28;20044;-72
2023/04/21 12:11:33;;;;;;;11.20;7.43;;;18.90;99.90;;;;;;5006386;28;20034;-72
2023/04/21 12:13:59;;;;;;;11.70;7.32;;;18.80;99.90;;;;;;4999226;28;20504;-72
2023/04/21 12:16:26;;;;;;;13.82;7.80;;;18.60;99.90;;;;;;4991040;28;21901;-72
2023/04/21 12:18:53;;;;;;;10.93;8.10;;;18.60;99.90;;;;;;4992021;28;20080;-72
2023/04/21 12:21:18;;;;;;;11.88;8.38;;;18.50;99.90;;;;;;5002427;28;20022;-72
2023/04/21 12:23:44;;;;;;;11.70;8.20;;;18.50;99.90;;;;;;5002169;28;20486;-72
2023/04/21 12:26:10;;;;;;;13.73;8.73;;;18.70;99.90;;;;;;4998471;28;22781;-73
2023/04/21 12:28:37;;;;;;;15.43;8.35;;;19.00;99.90;;;;;;4991781;28;20041;-73
2023/04/21 12:31:03;;;;;;;12.98;8.50;;;19.10;99.90;;;;;;4997164;28;20049;-72
2023/04/21 12:33:28;;;;;;;13.18;8.07;;;19.40;99.90;;;;;;4991054;28;20700;-73
2023/04/21 12:35:55;;;;;;;11.13;7.55;;;19.70;99.90;;;;;;4994793;28;20092;-73